sensor_id;sensor_type;location;lat;lon;timestamp;temperature;humidity
15879;DHT22;61999;51.514;14.614;2023-04-06T00:00:39;-2.80;49.60
15879;DHT22;61999;51.514;14.614;2023-04-06T00:03:07;-2.80;49.60
15879;DHT22;61999;51.514;14.614;2023-04-06T00:05:35;-2.90;49.60
15879;DHT22;61999;51.514;14.614;2023-04-06T00:08:05;-2.90;49.60
15879;DHT22;61999;51.514;14.614;2023-04-06T00:10:33;-2.90;49.70
15879;DHT22;61999;51.514;14.614;2023-04-06T00:13:01;-3.00;49.70
15879;DHT22;61999;51.514;14.614;2023-04-06T00:15:29;-3.00;49.70
15879;DHT22;61999;51.514;14.614;2023-04-06T00:17:58;-3.00;49.80
15879;DHT22;61999;51.514;14.614;2023-04-06T00:20:26;-3.10;49.80
15879;DHT22;61999;51.514;14.614;2023-04-06T00:22:54;-3.10;49.90
15879;DHT22;61999;51.514;14.614;2023-04-06T00:25:23;-3.10;49.90
15879;DHT22;61999;51.514;14.614;2023-04-06T00:27:51;-3.10;49.90
15879;DHT22;61999;51.514;14.614;2023-04-06T00:30:20;-3.10;49.90
15879;DHT22;61999;51.514;14.614;2023-04-06T00:32:48;-3.20;49.90
15879;DHT22;61999;51.514;14.614;2023-04-06T00:35:16;-3.20;49.90
15879;DHT22;61999;51.514;14.614;2023-04-06T00:37:46;-3.20;49.90
15879;DHT22;61999;51.514;14.614;2023-04-06T00:40:14;-3.20;50.00
15879;DHT22;61999;51.514;14.614;2023-04-06T00:42:44;-3.20;50.00
15879;DHT22;61999;51.514;14.614;2023-04-06T00:45:12;-3.20;50.20
15879;DHT22;61999;51.514;14.614;2023-04-06T00:47:40;-3.30;51.50
15879;DHT22;61999;51.514;14.614;2023-04-06T00:50:09;-3.30;51.30
15879;DHT22;61999;51.514;14.614;2023-04-06T00:52:38;-3.30;50.80
15879;DHT22;61999;51.514;14.614;2023-04-06T00:55:06;-3.30;50.60
15879;DHT22;61999;51.514;14.614;2023-04-06T00:57:35;-3.20;50.80
15879;DHT22;61999;51.514;14.614;2023-04-06T01:00:06;-3.20;50.80
15879;DHT22;61999;51.514;14.614;2023-04-06T01:02:35;-3.30;50.80
15879;DHT22;61999;51.514;14.614;2023-04-06T01:05:04;-3.30;50.80
15879;DHT22;61999;51.514;14.614;2023-04-06T01:07:33;-3.30;50.80
15879;DHT22;61999;51.514;14.614;2023-04-06T01:10:01;-3.30;50.80
15879;DHT22;61999;51.514;14.614;2023-04-06T01:12:30;-3.30;50.90
15879;DHT22;61999;51.514;14.614;2023-04-06T01:14:59;-3.20;50.90
15879;DHT22;61999;51.514;14.614;2023-04-06T01:17:29;-3.20;51.00
15879;DHT22;61999;51.514;14.614;2023-04-06T01:19:57;-3.20;51.00
15879;DHT22;61999;51.514;14.614;2023-04-06T01:22:27;-3.20;51.00
15879;DHT22;61999;51.514;14.614;2023-04-06T01:24:55;-3.20;51.10
15879;DHT22;61999;51.514;14.614;2023-04-06T01:27:23;-3.20;51.40
15879;DHT22;61999;51.514;14.614;2023-04-06T01:29:53;-3.20;51.30
15879;DHT22;61999;51.514;14.614;2023-04-06T01:32:21;-3.20;51.30
15879;DHT22;61999;51.514;14.614;2023-04-06T01:34:49;-3.20;51.20
15879;DHT22;61999;51.514;14.614;2023-04-06T01:37:17;-3.20;51.20
15879;DHT22;61999;51.514;14.614;2023-04-06T01:39:47;-3.20;51.30
15879;DHT22;61999;51.514;14.614;2023-04-06T01:42:15;-3.10;51.40
15879;DHT22;61999;51.514;14.614;2023-04-06T01:44:45;-3.10;51.40
15879;DHT22;61999;51.514;14.614;2023-04-06T01:47:23;-3.10;51.40
15879;DHT22;61999;51.514;14.614;2023-04-06T01:49:51;-3.10;51.40
15879;DHT22;61999;51.514;14.614;2023-04-06T01:52:19;-3.00;51.50
15879;DHT22;61999;51.514;14.614;2023-04-06T01:54:48;-3.00;51.50
15879;DHT22;61999;51.514;14.614;2023-04-06T01:57:17;-3.00;51.40
15879;DHT22;61999;51.514;14.614;2023-04-06T01:59:45;-3.00;52.00
15879;DHT22;61999;51.514;14.614;2023-04-06T02:02:13;-3.00;51.40
15879;DHT22;61999;51.514;14.614;2023-04-06T02:04:41;-3.00;51.40
15879;DHT22;61999;51.514;14.614;2023-04-06T02:07:09;-3.10;51.40
15879;DHT22;61999;51.514;14.614;2023-04-06T02:09:37;-3.00;51.40
15879;DHT22;61999;51.514;14.614;2023-04-06T02:12:07;-3.10;51.60
15879;DHT22;61999;51.514;14.614;2023-04-06T02:14:35;-3.10;51.50
15879;DHT22;61999;51.514;14.614;2023-04-06T02:17:03;-3.10;51.50
15879;DHT22;61999;51.514;14.614;2023-04-06T02:19:31;-3.10;51.40
15879;DHT22;61999;51.514;14.614;2023-04-06T02:21:59;-3.10;51.40
15879;DHT22;61999;51.514;14.614;2023-04-06T02:24:27;-3.20;51.20
15879;DHT22;61999;51.514;14.614;2023-04-06T02:26:55;-3.30;51.30
15879;DHT22;61999;51.514;14.614;2023-04-06T02:29:25;-3.30;51.20
15879;DHT22;61999;51.514;14.614;2023-04-06T02:31:53;-3.40;51.20
15879;DHT22;61999;51.514;14.614;2023-04-06T02:34:21;-3.40;51.20
15879;DHT22;61999;51.514;14.614;2023-04-06T02:36:49;-3.40;51.30
15879;DHT22;61999;51.514;14.614;2023-04-06T02:39:19;-3.50;51.50
15879;DHT22;61999;51.514;14.614;2023-04-06T02:41:47;-3.50;51.60
15879;DHT22;61999;51.514;14.614;2023-04-06T02:44:15;-3.50;53.40
15879;DHT22;61999;51.514;14.614;2023-04-06T02:46:44;-3.60;53.00
15879;DHT22;61999;51.514;14.614;2023-04-06T02:49:12;-3.60;53.90
15879;DHT22;61999;51.514;14.614;2023-04-06T02:51:40;-3.60;53.20
15879;DHT22;61999;51.514;14.614;2023-04-06T02:54:08;-3.60;52.80
15879;DHT22;61999;51.514;14.614;2023-04-06T02:56:36;-3.60;52.50
15879;DHT22;61999;51.514;14.614;2023-04-06T02:59:04;-3.60;53.00
15879;DHT22;61999;51.514;14.614;2023-04-06T03:01:33;-3.30;54.90
15879;DHT22;61999;51.514;14.614;2023-04-06T03:04:03;-3.10;55.90
15879;DHT22;61999;51.514;14.614;2023-04-06T03:06:31;-2.70;56.20
15879;DHT22;61999;51.514;14.614;2023-04-06T03:08:59;-2.50;55.80
15879;DHT22;61999;51.514;14.614;2023-04-06T03:11:27;-2.50;55.10
15879;DHT22;61999;51.514;14.614;2023-04-06T03:13:55;-2.90;54.20
15879;DHT22;61999;51.514;14.614;2023-04-06T03:16:23;-3.10;53.90
15879;DHT22;61999;51.514;14.614;2023-04-06T03:18:51;-3.30;53.80
15879;DHT22;61999;51.514;14.614;2023-04-06T03:21:21;-3.50;53.60
15879;DHT22;61999;51.514;14.614;2023-04-06T03:23:49;-3.60;53.50
15879;DHT22;61999;51.514;14.614;2023-04-06T03:26:17;-3.80;54.70
15879;DHT22;61999;51.514;14.614;2023-04-06T03:28:46;-3.80;54.00
15879;DHT22;61999;51.514;14.614;2023-04-06T03:31:14;-3.80;54.20
15879;DHT22;61999;51.514;14.614;2023-04-06T03:33:42;-3.70;55.00
15879;DHT22;61999;51.514;14.614;2023-04-06T03:36:10;-3.80;54.20
15879;DHT22;61999;51.514;14.614;2023-04-06T03:38:39;-3.90;54.00
15879;DHT22;61999;51.514;14.614;2023-04-06T03:41:07;-4.00;53.80
15879;DHT22;61999;51.514;14.614;2023-04-06T03:43:36;-4.00;53.80
15879;DHT22;61999;51.514;14.614;2023-04-06T03:46:04;-4.10;53.70
15879;DHT22;61999;51.514;14.614;2023-04-06T03:48:32;-4.10;53.70
15879;DHT22;61999;51.514;14.614;2023-04-06T03:51:00;-4.20;54.50
15879;DHT22;61999;51.514;14.614;2023-04-06T03:53:28;-4.20;54.40
15879;DHT22;61999;51.514;14.614;2023-04-06T03:55:58;-4.30;54.20
15879;DHT22;61999;51.514;14.614;2023-04-06T03:58:27;-4.30;54.00
15879;DHT22;61999;51.514;14.614;2023-04-06T04:00:55;-4.30;54.00
15879;DHT22;61999;51.514;14.614;2023-04-06T04:03:23;-4.40;53.80
15879;DHT22;61999;51.514;14.614;2023-04-06T04:05:53;-4.40;53.80
15879;DHT22;61999;51.514;14.614;2023-04-06T04:08:24;-4.40;54.00
15879;DHT22;61999;51.514;14.614;2023-04-06T04:10:52;-4.40;55.80
15879;DHT22;61999;51.514;14.614;2023-04-06T04:13:22;-4.50;55.80
15879;DHT22;61999;51.514;14.614;2023-04-06T04:15:50;-4.50;54.90
15879;DHT22;61999;51.514;14.614;2023-04-06T04:18:18;-4.50;54.60
15879;DHT22;61999;51.514;14.614;2023-04-06T04:20:46;-4.50;54.50
15879;DHT22;61999;51.514;14.614;2023-04-06T04:23:14;-4.50;54.30
15879;DHT22;61999;51.514;14.614;2023-04-06T04:25:43;-4.50;54.30
15879;DHT22;61999;51.514;14.614;2023-04-06T04:28:11;-4.50;54.20
15879;DHT22;61999;51.514;14.614;2023-04-06T04:30:40;-4.50;54.20
15879;DHT22;61999;51.514;14.614;2023-04-06T04:33:09;-4.50;54.20
15879;DHT22;61999;51.514;14.614;2023-04-06T04:35:37;-4.50;54.20
15879;DHT22;61999;51.514;14.614;2023-04-06T04:38:05;-4.40;54.20
15879;DHT22;61999;51.514;14.614;2023-04-06T04:40:33;-4.50;54.20
15879;DHT22;61999;51.514;14.614;2023-04-06T04:43:01;-4.40;54.20
15879;DHT22;61999;51.514;14.614;2023-04-06T04:45:29;-4.40;54.30
15879;DHT22;61999;51.514;14.614;2023-04-06T04:47:58;-4.40;54.30
15879;DHT22;61999;51.514;14.614;2023-04-06T04:50:27;-4.40;54.30
15879;DHT22;61999;51.514;14.614;2023-04-06T04:52:56;-4.40;54.30
15879;DHT22;61999;51.514;14.614;2023-04-06T04:55:24;-4.30;54.40
15879;DHT22;61999;51.514;14.614;2023-04-06T04:57:52;-4.40;54.30
15879;DHT22;61999;51.514;14.614;2023-04-06T05:00:21;-4.30;54.40
15879;DHT22;61999;51.514;14.614;2023-04-06T05:02:49;-4.30;54.40
15879;DHT22;61999;51.514;14.614;2023-04-06T05:05:19;-4.30;54.70
15879;DHT22;61999;51.514;14.614;2023-04-06T05:07:47;-4.30;55.30
15879;DHT22;61999;51.514;14.614;2023-04-06T05:10:15;-4.30;55.60
15879;DHT22;61999;51.514;14.614;2023-04-06T05:12:44;-4.30;56.20
15879;DHT22;61999;51.514;14.614;2023-04-06T05:15:12;-4.20;56.30
15879;DHT22;61999;51.514;14.614;2023-04-06T05:17:40;-4.20;55.40
15879;DHT22;61999;51.514;14.614;2023-04-06T05:20:10;-4.10;55.30
15879;DHT22;61999;51.514;14.614;2023-04-06T05:22:39;-4.00;55.60
15879;DHT22;61999;51.514;14.614;2023-04-06T05:25:08;-3.90;55.50
15879;DHT22;61999;51.514;14.614;2023-04-06T05:27:36;-3.80;55.40
15879;DHT22;61999;51.514;14.614;2023-04-06T05:30:06;-3.80;55.30
15879;DHT22;61999;51.514;14.614;2023-04-06T05:32:35;-3.80;55.30
15879;DHT22;61999;51.514;14.614;2023-04-06T05:35:03;-3.80;55.60
15879;DHT22;61999;51.514;14.614;2023-04-06T05:37:32;-3.80;57.00
15879;DHT22;61999;51.514;14.614;2023-04-06T05:40:16;-3.80;56.50
15879;DHT22;61999;51.514;14.614;2023-04-06T05:43:06;-3.70;56.20
15879;DHT22;61999;51.514;14.614;2023-04-06T05:45:34;-3.60;55.90
15879;DHT22;61999;51.514;14.614;2023-04-06T05:48:02;-3.60;55.70
15879;DHT22;61999;51.514;14.614;2023-04-06T05:50:31;-3.50;55.70
15879;DHT22;61999;51.514;14.614;2023-04-06T05:52:59;-3.50;57.70
15879;DHT22;61999;51.514;14.614;2023-04-06T05:55:28;-3.50;57.10
15879;DHT22;61999;51.514;14.614;2023-04-06T05:57:57;-3.50;56.50
15879;DHT22;61999;51.514;14.614;2023-04-06T06:00:25;-3.40;56.80
15879;DHT22;61999;51.514;14.614;2023-04-06T06:02:53;-3.40;56.90
15879;DHT22;61999;51.514;14.614;2023-04-06T06:05:21;-3.30;57.40
15879;DHT22;61999;51.514;14.614;2023-04-06T06:07:49;-3.30;57.90
15879;DHT22;61999;51.514;14.614;2023-04-06T06:10:17;-3.20;57.30
15879;DHT22;61999;51.514;14.614;2023-04-06T06:12:46;-3.10;56.90
15879;DHT22;61999;51.514;14.614;2023-04-06T06:15:18;-3.00;56.90
15879;DHT22;61999;51.514;14.614;2023-04-06T06:17:46;-2.90;56.90
15879;DHT22;61999;51.514;14.614;2023-04-06T06:20:14;-2.90;59.40
15879;DHT22;61999;51.514;14.614;2023-04-06T06:22:43;-2.90;59.60
15879;DHT22;61999;51.514;14.614;2023-04-06T06:25:11;-2.80;59.80
15879;DHT22;61999;51.514;14.614;2023-04-06T06:27:39;-2.80;59.50
15879;DHT22;61999;51.514;14.614;2023-04-06T06:30:09;-2.70;59.80
15879;DHT22;61999;51.514;14.614;2023-04-06T06:32:37;-2.70;60.20
15879;DHT22;61999;51.514;14.614;2023-04-06T06:35:06;-2.50;59.10
15879;DHT22;61999;51.514;14.614;2023-04-06T06:37:34;-2.30;59.70
15879;DHT22;61999;51.514;14.614;2023-04-06T06:40:03;-2.30;60.40
15879;DHT22;61999;51.514;14.614;2023-04-06T06:42:32;-2.40;60.60
15879;DHT22;61999;51.514;14.614;2023-04-06T06:45:00;-2.30;60.60
15879;DHT22;61999;51.514;14.614;2023-04-06T06:47:29;-2.10;60.20
15879;DHT22;61999;51.514;14.614;2023-04-06T06:49:57;-1.90;59.80
15879;DHT22;61999;51.514;14.614;2023-04-06T06:52:26;-1.70;59.50
15879;DHT22;61999;51.514;14.614;2023-04-06T06:54:55;-1.50;59.30
15879;DHT22;61999;51.514;14.614;2023-04-06T06:57:23;-1.40;58.10
15879;DHT22;61999;51.514;14.614;2023-04-06T06:59:52;-1.40;58.10
15879;DHT22;61999;51.514;14.614;2023-04-06T07:02:20;-1.30;58.00
15879;DHT22;61999;51.514;14.614;2023-04-06T07:04:49;-1.20;58.20
15879;DHT22;61999;51.514;14.614;2023-04-06T07:07:17;-1.00;57.90
15879;DHT22;61999;51.514;14.614;2023-04-06T07:09:45;-0.80;57.70
15879;DHT22;61999;51.514;14.614;2023-04-06T07:12:13;-0.60;57.30
15879;DHT22;61999;51.514;14.614;2023-04-06T07:14:43;-0.50;56.60
15879;DHT22;61999;51.514;14.614;2023-04-06T07:17:11;-0.40;56.80
15879;DHT22;61999;51.514;14.614;2023-04-06T07:19:39;-0.30;56.60
15879;DHT22;61999;51.514;14.614;2023-04-06T07:22:08;0.00;56.80
15879;DHT22;61999;51.514;14.614;2023-04-06T07:24:37;0.20;56.30
15879;DHT22;61999;51.514;14.614;2023-04-06T07:27:05;0.50;55.90
15879;DHT22;61999;51.514;14.614;2023-04-06T07:29:33;0.60;55.00
15879;DHT22;61999;51.514;14.614;2023-04-06T07:32:01;0.80;55.10
15879;DHT22;61999;51.514;14.614;2023-04-06T07:34:30;0.80;53.00
15879;DHT22;61999;51.514;14.614;2023-04-06T07:36:58;1.00;54.40
15879;DHT22;61999;51.514;14.614;2023-04-06T07:39:30;1.30;52.30
15879;DHT22;61999;51.514;14.614;2023-04-06T07:41:58;1.30;48.60
15879;DHT22;61999;51.514;14.614;2023-04-06T07:44:26;1.30;47.90
15879;DHT22;61999;51.514;14.614;2023-04-06T07:46:54;1.60;48.10
15879;DHT22;61999;51.514;14.614;2023-04-06T07:49:22;1.70;47.70
15879;DHT22;61999;51.514;14.614;2023-04-06T07:51:50;1.80;44.60
15879;DHT22;61999;51.514;14.614;2023-04-06T07:54:19;1.90;45.60
15879;DHT22;61999;51.514;14.614;2023-04-06T07:56:48;2.10;44.80
15879;DHT22;61999;51.514;14.614;2023-04-06T07:59:16;2.60;44.90
15879;DHT22;61999;51.514;14.614;2023-04-06T08:01:44;2.70;42.50
15879;DHT22;61999;51.514;14.614;2023-04-06T08:04:12;2.90;41.40
15879;DHT22;61999;51.514;14.614;2023-04-06T08:06:41;3.00;42.70
15879;DHT22;61999;51.514;14.614;2023-04-06T08:09:09;3.20;39.60
15879;DHT22;61999;51.514;14.614;2023-04-06T08:11:37;3.30;38.70
15879;DHT22;61999;51.514;14.614;2023-04-06T08:14:06;3.30;38.10
15879;DHT22;61999;51.514;14.614;2023-04-06T08:16:34;3.60;37.20
15879;DHT22;61999;51.514;14.614;2023-04-06T08:19:02;3.90;37.20
15879;DHT22;61999;51.514;14.614;2023-04-06T08:21:30;4.20;37.30
15879;DHT22;61999;51.514;14.614;2023-04-06T08:23:59;4.30;39.90
15879;DHT22;61999;51.514;14.614;2023-04-06T08:26:27;4.70;41.80
15879;DHT22;61999;51.514;14.614;2023-04-06T08:28:55;4.90;38.70
15879;DHT22;61999;51.514;14.614;2023-04-06T08:31:24;5.10;39.00
15879;DHT22;61999;51.514;14.614;2023-04-06T08:33:53;5.40;40.10
15879;DHT22;61999;51.514;14.614;2023-04-06T08:36:21;5.60;35.40
15879;DHT22;61999;51.514;14.614;2023-04-06T08:38:49;5.60;34.90
15879;DHT22;61999;51.514;14.614;2023-04-06T08:41:17;5.90;38.50
15879;DHT22;61999;51.514;14.614;2023-04-06T08:43:47;5.90;33.50
15879;DHT22;61999;51.514;14.614;2023-04-06T08:46:17;6.00;36.30
15879;DHT22;61999;51.514;14.614;2023-04-06T08:48:47;6.20;34.10
15879;DHT22;61999;51.514;14.614;2023-04-06T08:51:17;6.50;34.90
15879;DHT22;61999;51.514;14.614;2023-04-06T08:53:47;6.70;34.30
15879;DHT22;61999;51.514;14.614;2023-04-06T08:56:17;7.00;37.50
15879;DHT22;61999;51.514;14.614;2023-04-06T08:58:45;7.60;32.50
15879;DHT22;61999;51.514;14.614;2023-04-06T09:01:17;7.80;35.40
15879;DHT22;61999;51.514;14.614;2023-04-06T09:03:49;7.90;34.70
15879;DHT22;61999;51.514;14.614;2023-04-06T09:06:19;7.90;33.30
15879;DHT22;61999;51.514;14.614;2023-04-06T09:08:48;7.90;31.10
15879;DHT22;61999;51.514;14.614;2023-04-06T09:11:16;8.20;34.80
15879;DHT22;61999;51.514;14.614;2023-04-06T09:13:46;8.30;32.40
15879;DHT22;61999;51.514;14.614;2023-04-06T09:16:15;8.30;31.00
15879;DHT22;61999;51.514;14.614;2023-04-06T09:18:44;8.70;35.50
15879;DHT22;61999;51.514;14.614;2023-04-06T09:21:17;9.10;34.80
15879;DHT22;61999;51.514;14.614;2023-04-06T09:23:57;9.40;31.30
15879;DHT22;61999;51.514;14.614;2023-04-06T09:26:26;9.90;29.60
15879;DHT22;61999;51.514;14.614;2023-04-06T09:28:56;10.00;29.70
15879;DHT22;61999;51.514;14.614;2023-04-06T09:31:28;9.80;29.50
15879;DHT22;61999;51.514;14.614;2023-04-06T09:33:59;9.70;29.70
15879;DHT22;61999;51.514;14.614;2023-04-06T09:36:34;9.80;29.70
15879;DHT22;61999;51.514;14.614;2023-04-06T09:39:05;10.00;29.20
15879;DHT22;61999;51.514;14.614;2023-04-06T09:41:35;9.60;29.00
15879;DHT22;61999;51.514;14.614;2023-04-06T09:44:04;9.60;29.00
15879;DHT22;61999;51.514;14.614;2023-04-06T09:46:34;9.50;30.00
15879;DHT22;61999;51.514;14.614;2023-04-06T09:49:13;9.70;29.30
15879;DHT22;61999;51.514;14.614;2023-04-06T09:52:04;10.30;30.10
15879;DHT22;61999;51.514;14.614;2023-04-06T09:54:36;10.50;28.40
15879;DHT22;61999;51.514;14.614;2023-04-06T09:57:08;10.50;28.40
15879;DHT22;61999;51.514;14.614;2023-04-06T09:59:47;10.40;29.00
15879;DHT22;61999;51.514;14.614;2023-04-06T10:02:28;10.90;31.70
15879;DHT22;61999;51.514;14.614;2023-04-06T10:05:05;11.40;30.50
15879;DHT22;61999;51.514;14.614;2023-04-06T10:07:39;11.50;30.50
15879;DHT22;61999;51.514;14.614;2023-04-06T10:10:15;11.50;28.70
15879;DHT22;61999;51.514;14.614;2023-04-06T10:12:44;11.70;31.30
15879;DHT22;61999;51.514;14.614;2023-04-06T10:15:15;11.80;30.60
15879;DHT22;61999;51.514;14.614;2023-04-06T10:17:45;11.80;30.70
15879;DHT22;61999;51.514;14.614;2023-04-06T10:20:18;12.00;31.80
15879;DHT22;61999;51.514;14.614;2023-04-06T10:22:56;12.30;31.60
15879;DHT22;61999;51.514;14.614;2023-04-06T10:25:30;12.70;31.60
15879;DHT22;61999;51.514;14.614;2023-04-06T10:28:00;13.00;32.30
15879;DHT22;61999;51.514;14.614;2023-04-06T10:30:28;13.30;30.50
15879;DHT22;61999;51.514;14.614;2023-04-06T10:32:57;13.40;29.60
15879;DHT22;61999;51.514;14.614;2023-04-06T10:35:36;13.40;27.30
15879;DHT22;61999;51.514;14.614;2023-04-06T10:38:07;13.20;26.20
15879;DHT22;61999;51.514;14.614;2023-04-06T10:40:36;12.90;25.10
15879;DHT22;61999;51.514;14.614;2023-04-06T10:43:09;12.60;26.30
15879;DHT22;61999;51.514;14.614;2023-04-06T10:45:59;12.60;25.90
15879;DHT22;61999;51.514;14.614;2023-04-06T10:48:41;12.20;24.60
15879;DHT22;61999;51.514;14.614;2023-04-06T10:51:11;11.80;27.30
15879;DHT22;61999;51.514;14.614;2023-04-06T10:53:42;11.50;26.00
15879;DHT22;61999;51.514;14.614;2023-04-06T10:56:16;11.20;27.20
15879;DHT22;61999;51.514;14.614;2023-04-06T10:58:50;10.80;27.20
15879;DHT22;61999;51.514;14.614;2023-04-06T11:01:21;10.50;27.00
15879;DHT22;61999;51.514;14.614;2023-04-06T11:03:53;10.20;27.50
15879;DHT22;61999;51.514;14.614;2023-04-06T11:06:26;10.40;26.90
15879;DHT22;61999;51.514;14.614;2023-04-06T11:08:59;10.80;27.80
15879;DHT22;61999;51.514;14.614;2023-04-06T11:11:27;11.70;26.80
15879;DHT22;61999;51.514;14.614;2023-04-06T11:13:57;12.10;26.80
15879;DHT22;61999;51.514;14.614;2023-04-06T11:16:27;12.30;26.00
15879;DHT22;61999;51.514;14.614;2023-04-06T11:18:59;12.70;25.10
15879;DHT22;61999;51.514;14.614;2023-04-06T11:21:36;12.70;24.40
15879;DHT22;61999;51.514;14.614;2023-04-06T11:24:08;12.90;25.70
15879;DHT22;61999;51.514;14.614;2023-04-06T11:26:42;13.50;27.00
15879;DHT22;61999;51.514;14.614;2023-04-06T11:29:25;13.90;24.20
15879;DHT22;61999;51.514;14.614;2023-04-06T11:32:22;14.50;23.50
15879;DHT22;61999;51.514;14.614;2023-04-06T11:34:51;14.90;26.30
15879;DHT22;61999;51.514;14.614;2023-04-06T11:37:19;16.00;23.20
15879;DHT22;61999;51.514;14.614;2023-04-06T11:39:50;16.80;22.30
15879;DHT22;61999;51.514;14.614;2023-04-06T11:42:23;16.60;21.00
15879;DHT22;61999;51.514;14.614;2023-04-06T11:44:54;16.90;22.00
15879;DHT22;61999;51.514;14.614;2023-04-06T11:47:27;17.30;24.10
15879;DHT22;61999;51.514;14.614;2023-04-06T11:50:05;17.50;20.90
15879;DHT22;61999;51.514;14.614;2023-04-06T11:52:35;17.50;20.50
15879;DHT22;61999;51.514;14.614;2023-04-06T11:55:12;18.00;23.80
15879;DHT22;61999;51.514;14.614;2023-04-06T11:57:42;18.70;24.80
15879;DHT22;61999;51.514;14.614;2023-04-06T12:00:11;18.90;20.80
15879;DHT22;61999;51.514;14.614;2023-04-06T12:02:40;18.30;19.70
15879;DHT22;61999;51.514;14.614;2023-04-06T12:05:13;18.50;22.30
15879;DHT22;61999;51.514;14.614;2023-04-06T12:07:42;18.40;22.60
15879;DHT22;61999;51.514;14.614;2023-04-06T12:10:12;18.10;21.10
15879;DHT22;61999;51.514;14.614;2023-04-06T12:12:40;17.30;19.70
15879;DHT22;61999;51.514;14.614;2023-04-06T12:15:09;16.20;19.60
15879;DHT22;61999;51.514;14.614;2023-04-06T12:17:37;15.80;20.00
15879;DHT22;61999;51.514;14.614;2023-04-06T12:20:06;15.50;21.40
15879;DHT22;61999;51.514;14.614;2023-04-06T12:22:39;15.10;21.00
15879;DHT22;61999;51.514;14.614;2023-04-06T12:25:08;14.80;21.60
15879;DHT22;61999;51.514;14.614;2023-04-06T12:27:37;14.50;22.10
15879;DHT22;61999;51.514;14.614;2023-04-06T12:30:07;14.20;22.30
15879;DHT22;61999;51.514;14.614;2023-04-06T12:32:36;14.00;23.10
15879;DHT22;61999;51.514;14.614;2023-04-06T12:35:04;13.70;21.60
15879;DHT22;61999;51.514;14.614;2023-04-06T12:37:32;13.40;22.60
15879;DHT22;61999;51.514;14.614;2023-04-06T12:40:00;13.30;23.20
15879;DHT22;61999;51.514;14.614;2023-04-06T12:42:29;13.20;23.70
15879;DHT22;61999;51.514;14.614;2023-04-06T12:44:59;13.00;23.90
15879;DHT22;61999;51.514;14.614;2023-04-06T12:47:27;13.00;23.80
15879;DHT22;61999;51.514;14.614;2023-04-06T12:49:55;12.90;24.20
15879;DHT22;61999;51.514;14.614;2023-04-06T12:52:23;12.80;24.50
15879;DHT22;61999;51.514;14.614;2023-04-06T12:54:51;12.60;24.60
15879;DHT22;61999;51.514;14.614;2023-04-06T12:57:19;12.60;24.80
15879;DHT22;61999;51.514;14.614;2023-04-06T12:59:48;12.60;25.10
15879;DHT22;61999;51.514;14.614;2023-04-06T13:02:19;12.50;25.20
15879;DHT22;61999;51.514;14.614;2023-04-06T13:04:48;12.70;23.90
15879;DHT22;61999;51.514;14.614;2023-04-06T13:07:17;12.60;24.80
15879;DHT22;61999;51.514;14.614;2023-04-06T13:09:45;12.50;25.10
15879;DHT22;61999;51.514;14.614;2023-04-06T13:12:16;12.40;24.90
15879;DHT22;61999;51.514;14.614;2023-04-06T13:14:44;12.40;25.20
15879;DHT22;61999;51.514;14.614;2023-04-06T13:17:18;12.40;25.20
15879;DHT22;61999;51.514;14.614;2023-04-06T13:19:47;12.40;25.40
15879;DHT22;61999;51.514;14.614;2023-04-06T13:22:15;12.30;25.20
15879;DHT22;61999;51.514;14.614;2023-04-06T13:24:43;12.40;25.50
15879;DHT22;61999;51.514;14.614;2023-04-06T13:27:12;12.40;25.50
15879;DHT22;61999;51.514;14.614;2023-04-06T13:29:41;12.50;25.20
15879;DHT22;61999;51.514;14.614;2023-04-06T13:32:09;12.60;25.00
15879;DHT22;61999;51.514;14.614;2023-04-06T13:34:38;12.60;25.20
15879;DHT22;61999;51.514;14.614;2023-04-06T13:37:07;12.60;25.20
15879;DHT22;61999;51.514;14.614;2023-04-06T13:39:35;12.70;24.40
15879;DHT22;61999;51.514;14.614;2023-04-06T13:42:03;12.80;25.20
15879;DHT22;61999;51.514;14.614;2023-04-06T13:44:31;12.90;25.10
15879;DHT22;61999;51.514;14.614;2023-04-06T13:46:59;13.60;24.30
15879;DHT22;61999;51.514;14.614;2023-04-06T13:49:27;14.10;23.80
15879;DHT22;61999;51.514;14.614;2023-04-06T13:51:58;14.50;24.80
15879;DHT22;61999;51.514;14.614;2023-04-06T13:54:26;15.10;24.60
15879;DHT22;61999;51.514;14.614;2023-04-06T13:56:55;15.80;23.10
15879;DHT22;61999;51.514;14.614;2023-04-06T13:59:23;16.40;23.80
15879;DHT22;61999;51.514;14.614;2023-04-06T14:01:51;16.90;23.60
15879;DHT22;61999;51.514;14.614;2023-04-06T14:04:19;17.70;22.80
15879;DHT22;61999;51.514;14.614;2023-04-06T14:06:47;18.30;22.70
15879;DHT22;61999;51.514;14.614;2023-04-06T14:09:17;19.10;20.80
15879;DHT22;61999;51.514;14.614;2023-04-06T14:11:45;19.50;22.00
15879;DHT22;61999;51.514;14.614;2023-04-06T14:14:13;20.00;21.60
15879;DHT22;61999;51.514;14.614;2023-04-06T14:16:41;20.30;21.60
15879;DHT22;61999;51.514;14.614;2023-04-06T14:19:10;20.50;21.30
15879;DHT22;61999;51.514;14.614;2023-04-06T14:21:39;20.50;21.00
15879;DHT22;61999;51.514;14.614;2023-04-06T14:24:07;20.50;20.30
15879;DHT22;61999;51.514;14.614;2023-04-06T14:26:38;20.40;20.10
15879;DHT22;61999;51.514;14.614;2023-04-06T14:29:08;20.10;19.90
15879;DHT22;61999;51.514;14.614;2023-04-06T14:31:37;19.70;20.40
15879;DHT22;61999;51.514;14.614;2023-04-06T14:34:05;19.40;19.90
15879;DHT22;61999;51.514;14.614;2023-04-06T14:36:34;19.00;20.00
15879;DHT22;61999;51.514;14.614;2023-04-06T14:39:05;18.60;20.10
15879;DHT22;61999;51.514;14.614;2023-04-06T14:41:34;18.10;20.30
15879;DHT22;61999;51.514;14.614;2023-04-06T14:44:03;17.70;20.50
15879;DHT22;61999;51.514;14.614;2023-04-06T14:46:32;17.30;20.70
15879;DHT22;61999;51.514;14.614;2023-04-06T14:49:00;16.80;20.80
15879;DHT22;61999;51.514;14.614;2023-04-06T14:51:30;16.40;20.90
15879;DHT22;61999;51.514;14.614;2023-04-06T14:54:00;16.00;21.00
15879;DHT22;61999;51.514;14.614;2023-04-06T14:56:29;15.60;21.20
15879;DHT22;61999;51.514;14.614;2023-04-06T14:58:58;15.20;21.30
15879;DHT22;61999;51.514;14.614;2023-04-06T15:01:33;14.90;21.60
15879;DHT22;61999;51.514;14.614;2023-04-06T15:04:02;14.70;21.70
15879;DHT22;61999;51.514;14.614;2023-04-06T15:06:31;14.30;21.00
15879;DHT22;61999;51.514;14.614;2023-04-06T15:08:59;14.00;21.10
15879;DHT22;61999;51.514;14.614;2023-04-06T15:11:27;13.80;21.70
15879;DHT22;61999;51.514;14.614;2023-04-06T15:13:55;13.50;22.20
15879;DHT22;61999;51.514;14.614;2023-04-06T15:16:23;13.50;23.00
15879;DHT22;61999;51.514;14.614;2023-04-06T15:18:53;13.80;23.20
15879;DHT22;61999;51.514;14.614;2023-04-06T15:21:21;14.10;23.10
15879;DHT22;61999;51.514;14.614;2023-04-06T15:23:49;14.50;23.60
15879;DHT22;61999;51.514;14.614;2023-04-06T15:26:18;14.80;23.80
15879;DHT22;61999;51.514;14.614;2023-04-06T15:28:46;15.30;23.70
15879;DHT22;61999;51.514;14.614;2023-04-06T15:31:15;15.90;23.50